createdAt,value
2023-05-04T00:02:22.426Z,14.51
2023-05-04T00:04:52.125Z,14.48
2023-05-04T00:07:19.892Z,14.46
2023-05-04T00:09:46.925Z,14.44
2023-05-04T00:12:13.777Z,14.45
2023-05-04T00:14:40.829Z,14.45
2023-05-04T00:17:08.185Z,14.44
2023-05-04T00:19:40.564Z,14.44
2023-05-04T00:22:07.967Z,14.44
2023-05-04T00:24:34.980Z,14.43
2023-05-04T00:27:02.542Z,14.42
2023-05-04T00:29:30.624Z,14.39
2023-05-04T00:31:57.736Z,14.37
2023-05-04T00:34:25.041Z,14.38
2023-05-04T00:36:51.937Z,14.37
2023-05-04T00:39:18.853Z,14.37
2023-05-04T00:41:45.964Z,14.36
2023-05-04T00:44:13.251Z,14.34
2023-05-04T00:46:40.736Z,14.33
2023-05-04T00:49:07.810Z,14.32
2023-05-04T00:51:34.941Z,14.31
2023-05-04T00:54:01.830Z,14.29
2023-05-04T00:56:29.234Z,14.28
2023-05-04T00:58:58.045Z,14.24
2023-05-04T01:01:25.466Z,14.22
2023-05-04T01:03:52.776Z,14.20
2023-05-04T01:06:26.290Z,14.20
2023-05-04T01:09:02.410Z,14.19
2023-05-04T01:11:41.436Z,14.15
2023-05-04T01:14:08.293Z,14.12
2023-05-04T01:16:35.282Z,14.09
2023-05-04T01:19:04.023Z,14.10
2023-05-04T01:21:31.394Z,14.10
2023-05-04T01:23:58.964Z,14.10
2023-05-04T01:26:29.319Z,14.09
2023-05-04T01:29:17.118Z,14.08
2023-05-04T01:31:45.137Z,14.07
2023-05-04T01:34:12.760Z,14.06
2023-05-04T01:36:40.433Z,14.03
2023-05-04T01:39:09.880Z,13.99
2023-05-04T01:41:36.990Z,13.94
2023-05-04T01:44:04.983Z,13.93
2023-05-04T01:46:31.934Z,13.89
2023-05-04T01:49:00.396Z,13.84
2023-05-04T01:51:27.350Z,13.83
2023-05-04T01:53:54.297Z,13.81
2023-05-04T01:56:21.960Z,13.76
2023-05-04T01:58:48.917Z,13.71
2023-05-04T02:01:15.886Z,13.65
2023-05-04T02:03:43.051Z,13.64
2023-05-04T02:06:10.351Z,13.61
2023-05-04T02:08:37.248Z,13.61
2023-05-04T02:11:04.150Z,13.58
2023-05-04T02:13:31.540Z,13.54
2023-05-04T02:15:58.520Z,13.50
2023-05-04T02:18:25.450Z,13.47
2023-05-04T02:20:52.264Z,13.45
2023-05-04T02:23:19.138Z,13.43
2023-05-04T02:25:45.950Z,13.41
2023-05-04T02:28:12.856Z,13.40
2023-05-04T02:30:39.790Z,13.40
2023-05-04T02:33:06.802Z,13.40
2023-05-04T02:35:33.743Z,13.38
2023-05-04T02:38:00.952Z,13.38
2023-05-04T02:40:28.004Z,13.37
2023-05-04T02:42:56.300Z,13.34
2023-05-04T02:45:23.350Z,13.32
2023-05-04T02:47:50.338Z,13.31
2023-05-04T02:50:17.466Z,13.31
2023-05-04T02:52:44.390Z,13.32
2023-05-04T02:55:11.361Z,13.35
2023-05-04T02:57:38.312Z,13.36
2023-05-04T03:00:07.276Z,13.36
2023-05-04T03:02:34.385Z,13.37
2023-05-04T03:05:01.306Z,13.36
2023-05-04T03:07:28.578Z,13.36
2023-05-04T03:09:55.525Z,13.37
2023-05-04T03:12:22.468Z,13.38
2023-05-04T03:14:49.327Z,13.39
2023-05-04T03:17:16.258Z,13.39
2023-05-04T03:19:43.218Z,13.40
2023-05-04T03:22:10.693Z,13.37
2023-05-04T03:24:38.144Z,13.34
2023-05-04T03:27:05.095Z,13.30
2023-05-04T03:29:32.580Z,13.28
2023-05-04T03:31:59.839Z,13.28
2023-05-04T03:34:26.866Z,13.31
2023-05-04T03:36:56.382Z,13.35
2023-05-04T03:39:23.603Z,13.38
2023-05-04T03:41:52.431Z,13.41
2023-05-04T03:44:20.131Z,13.46
2023-05-04T03:46:47.257Z,13.49
2023-05-04T03:49:14.512Z,13.53
2023-05-04T03:51:41.363Z,13.56
2023-05-04T03:54:08.446Z,13.60
2023-05-04T03:56:35.309Z,13.64
2023-05-04T03:59:02.167Z,13.67
2023-05-04T04:01:30.733Z,13.71
2023-05-04T04:03:57.866Z,13.74
2023-05-04T04:06:25.008Z,13.79
2023-05-04T04:08:52.166Z,13.84
2023-05-04T04:11:19.020Z,13.89
2023-05-04T04:13:45.874Z,13.94
2023-05-04T04:16:12.947Z,13.99
2023-05-04T04:18:39.997Z,14.01
2023-05-04T04:21:06.813Z,14.05
2023-05-04T04:23:33.649Z,14.13
2023-05-04T04:26:01.849Z,14.20
2023-05-04T04:28:29.010Z,14.25
2023-05-04T04:30:56.149Z,14.28
2023-05-04T04:33:23.218Z,14.30
2023-05-04T04:35:50.071Z,14.34
2023-05-04T04:38:17.239Z,14.38
2023-05-04T04:40:44.181Z,14.42
2023-05-04T04:43:11.739Z,14.47
2023-05-04T04:45:39.410Z,14.49
2023-05-04T04:48:06.683Z,14.54
2023-05-04T04:50:33.587Z,14.58
2023-05-04T04:53:00.568Z,14.63
2023-05-04T04:55:27.519Z,14.68
2023-05-04T04:57:55.799Z,14.71
2023-05-04T05:00:24.696Z,14.75
2023-05-04T05:02:51.835Z,14.78
2023-05-04T05:05:18.800Z,14.79
2023-05-04T05:07:45.854Z,14.79
2023-05-04T05:10:13.423Z,14.82
2023-05-04T05:12:40.391Z,14.86
2023-05-04T05:15:08.501Z,14.90
2023-05-04T05:17:37.765Z,14.96
2023-05-04T05:20:11.827Z,15.05
2023-05-04T05:22:39.146Z,15.13
2023-05-04T05:25:07.221Z,15.20
2023-05-04T05:27:34.784Z,15.30
2023-05-04T05:30:06.617Z,15.43
2023-05-04T05:32:33.929Z,15.56
2023-05-04T05:35:01.180Z,15.69
2023-05-04T05:37:28.110Z,15.79
2023-05-04T05:39:54.939Z,15.87
2023-05-04T05:42:22.016Z,15.90
2023-05-04T05:44:48.964Z,15.96
2023-05-04T05:47:15.874Z,16.07
2023-05-04T05:49:44.776Z,16.17
2023-05-04T05:52:13.197Z,16.26
2023-05-04T05:54:40.135Z,16.32
2023-05-04T05:57:07.088Z,16.37
2023-05-04T05:59:34.045Z,16.43
2023-05-04T06:02:00.995Z,16.47
2023-05-04T06:04:28.051Z,16.48
2023-05-04T06:06:55.608Z,16.55
2023-05-04T06:09:22.546Z,16.59
2023-05-04T06:11:49.497Z,16.63
2023-05-04T06:14:17.528Z,16.63
2023-05-04T06:16:44.693Z,16.63
2023-05-04T06:19:11.903Z,16.70
2023-05-04T06:21:38.852Z,16.71
2023-05-04T06:24:06.221Z,16.75
2023-05-04T06:26:33.142Z,16.84
2023-05-04T06:29:00.147Z,16.97
2023-05-04T06:31:27.198Z,17.12
2023-05-04T06:33:54.224Z,17.26
2023-05-04T06:36:21.385Z,17.38
2023-05-04T06:38:48.326Z,17.51
2023-05-04T06:41:15.259Z,17.63
2023-05-04T06:43:42.490Z,17.80
2023-05-04T06:46:09.658Z,18.03
2023-05-04T06:48:36.645Z,18.32
2023-05-04T06:51:03.591Z,18.69
2023-05-04T06:53:30.548Z,19.17
2023-05-04T06:55:57.407Z,20.04
2023-05-04T06:58:24.259Z,21.41
2023-05-04T07:00:51.457Z,22.73
2023-05-04T07:03:18.822Z,23.39
2023-05-04T07:05:48.715Z,23.95
2023-05-04T07:08:15.525Z,24.60
2023-05-04T07:10:42.482Z,25.17
2023-05-04T07:13:09.663Z,25.57
2023-05-04T07:15:37.100Z,26.15
2023-05-04T07:18:04.494Z,26.94
2023-05-04T07:20:31.611Z,27.64
2023-05-04T07:22:58.520Z,28.09
2023-05-04T07:25:25.880Z,28.41
2023-05-04T07:27:52.996Z,28.80
2023-05-04T07:30:20.546Z,29.10
2023-05-04T07:32:47.543Z,29.36
2023-05-04T07:35:15.368Z,29.70
2023-05-04T07:37:42.317Z,30.15
2023-05-04T07:40:10.530Z,30.45
2023-05-04T07:42:37.492Z,30.40
2023-05-04T07:45:05.134Z,30.19
2023-05-04T07:47:32.167Z,29.93
2023-05-04T07:49:59.223Z,29.45
2023-05-04T07:52:26.176Z,28.74
2023-05-04T07:54:53.750Z,27.80
2023-05-04T07:57:21.201Z,26.82
2023-05-04T07:59:48.112Z,25.98
2023-05-04T08:02:16.895Z,25.32
2023-05-04T08:04:43.864Z,24.74
2023-05-04T08:07:10.769Z,24.27
2023-05-04T08:09:37.800Z,23.90
2023-05-04T08:12:05.370Z,23.63
2023-05-04T08:14:33.559Z,23.39
2023-05-04T08:17:00.747Z,23.14
2023-05-04T08:19:27.756Z,22.92
2023-05-04T08:21:55.542Z,22.78
2023-05-04T08:24:22.580Z,22.68
2023-05-04T08:26:55.934Z,22.59
2023-05-04T08:29:31.944Z,22.50
2023-05-04T08:31:59.540Z,22.38
2023-05-04T08:34:27.067Z,22.26
2023-05-04T08:36:54.164Z,22.10
2023-05-04T08:39:21.219Z,21.90
2023-05-04T08:41:48.050Z,21.76
2023-05-04T08:44:16.104Z,21.74
2023-05-04T08:46:43.270Z,21.69
2023-05-04T08:49:13.089Z,21.62
2023-05-04T08:51:40.029Z,21.59
2023-05-04T08:54:08.987Z,21.58
2023-05-04T08:56:36.662Z,21.55
2023-05-04T08:59:04.007Z,21.55
2023-05-04T09:01:31.114Z,21.52
2023-05-04T09:03:58.301Z,21.49
2023-05-04T09:06:25.315Z,21.44
2023-05-04T09:08:52.231Z,21.40
2023-05-04T09:11:19.140Z,21.34
2023-05-04T09:13:47.832Z,21.26
2023-05-04T09:16:16.490Z,21.18
2023-05-04T09:18:44.115Z,21.07
2023-05-04T09:21:11.443Z,20.96
2023-05-04T09:23:54.124Z,20.87
2023-05-04T09:26:32.682Z,20.78
2023-05-04T09:29:13.982Z,20.73
2023-05-04T09:31:44.256Z,20.66
2023-05-04T09:34:11.153Z,20.56
2023-05-04T09:36:38.314Z,20.53
2023-05-04T09:39:11.596Z,20.51
2023-05-04T09:41:38.607Z,20.46
2023-05-04T09:44:05.500Z,20.39
2023-05-04T09:46:33.326Z,20.36
2023-05-04T09:49:01.544Z,20.31
2023-05-04T09:51:28.898Z,20.28
2023-05-04T09:53:55.929Z,20.22
2023-05-04T09:56:42.347Z,20.17
2023-05-04T09:59:10.291Z,20.10
2023-05-04T10:01:37.290Z,20.04
2023-05-04T10:04:04.556Z,20.00
2023-05-04T10:06:31.415Z,19.96
2023-05-04T10:08:59.628Z,19.95
2023-05-04T10:11:26.902Z,19.99
2023-05-04T10:13:56.209Z,20.06
2023-05-04T10:16:48.832Z,20.18
2023-05-04T10:19:18.274Z,20.29
2023-05-04T10:21:53.422Z,20.35
2023-05-04T10:24:38.797Z,20.42
2023-05-04T10:27:20.297Z,20.51
2023-05-04T10:29:51.497Z,20.59
2023-05-04T10:32:20.341Z,20.62
2023-05-04T10:34:47.327Z,20.65
2023-05-04T10:37:18.370Z,20.72
2023-05-04T10:39:54.960Z,20.74
2023-05-04T10:42:22.112Z,20.71
2023-05-04T10:44:53.580Z,20.71
2023-05-04T10:47:46.937Z,20.77
2023-05-04T10:50:14.756Z,20.88
2023-05-04T10:52:46.338Z,20.96
2023-05-04T10:55:13.410Z,21.02
2023-05-04T10:57:56.919Z,21.11
2023-05-04T11:00:24.606Z,21.16
2023-05-04T11:02:52.501Z,21.21
2023-05-04T11:05:20.813Z,21.21
2023-05-04T11:07:50.828Z,21.19
2023-05-04T11:10:25.035Z,21.19
2023-05-04T11:12:52.844Z,21.21
2023-05-04T11:15:21.420Z,21.24
2023-05-04T11:17:49.593Z,21.25
2023-05-04T11:20:20.869Z,21.24
2023-05-04T11:22:48.645Z,21.22
2023-05-04T11:25:17.046Z,21.21
2023-05-04T11:27:44.524Z,21.28
2023-05-04T11:30:12.261Z,21.32
2023-05-04T11:32:43.866Z,21.34
2023-05-04T11:35:15.837Z,21.31
2023-05-04T11:37:43.495Z,21.26
2023-05-04T11:40:11.352Z,21.25
2023-05-04T11:42:40.302Z,21.27
2023-05-04T11:45:09.769Z,21.29
2023-05-04T11:47:37.777Z,21.31
2023-05-04T11:50:06.836Z,21.36
2023-05-04T11:52:36.548Z,21.42
2023-05-04T11:55:04.003Z,21.48
2023-05-04T11:57:31.956Z,21.51
2023-05-04T11:59:58.905Z,21.51
2023-05-04T12:02:27.106Z,21.49
2023-05-04T12:04:54.153Z,21.48
2023-05-04T12:07:21.064Z,21.43
2023-05-04T12:09:48.575Z,21.36
2023-05-04T12:12:16.661Z,21.32
2023-05-04T12:14:50.368Z,21.30
2023-05-04T12:17:17.247Z,21.31
2023-05-04T12:19:55.187Z,21.29
2023-05-04T12:22:33.189Z,21.25
2023-05-04T12:25:00.115Z,21.26
2023-05-04T12:27:27.297Z,21.30
2023-05-04T12:29:55.885Z,21.33
2023-05-04T12:32:23.290Z,21.33
2023-05-04T12:34:50.168Z,21.30
2023-05-04T12:37:17.410Z,21.30
2023-05-04T12:39:44.412Z,21.33
2023-05-04T12:42:11.461Z,21.39
2023-05-04T12:44:38.420Z,21.43
2023-05-04T12:47:05.475Z,21.46
2023-05-04T12:49:32.336Z,21.48
2023-05-04T12:51:59.370Z,21.48
2023-05-04T12:54:26.310Z,21.43
2023-05-04T12:56:53.649Z,21.36
2023-05-04T12:59:21.909Z,21.34
2023-05-04T13:01:49.256Z,21.34
2023-05-04T13:04:16.478Z,21.31
2023-05-04T13:06:43.371Z,21.29
2023-05-04T13:09:10.489Z,21.29
2023-05-04T13:11:38.567Z,21.29
2023-05-04T13:14:05.517Z,21.26
2023-05-04T13:16:32.550Z,21.21
2023-05-04T13:18:59.826Z,21.17
2023-05-04T13:21:26.695Z,21.13
2023-05-04T13:23:53.549Z,21.07
2023-05-04T13:26:20.479Z,21.02
2023-05-04T13:28:47.334Z,20.90
2023-05-04T13:31:14.418Z,20.78
2023-05-04T13:33:41.573Z,20.73
2023-05-04T13:36:08.818Z,20.71
2023-05-04T13:38:36.768Z,20.62
2023-05-04T13:41:04.038Z,20.50
2023-05-04T13:43:31.730Z,20.37
2023-05-04T13:46:02.953Z,20.36
2023-05-04T13:48:32.893Z,20.34
2023-05-04T13:50:59.803Z,20.29
2023-05-04T13:53:26.636Z,20.21
2023-05-04T13:55:53.620Z,20.13
2023-05-04T13:58:20.491Z,20.09
2023-05-04T14:00:47.381Z,20.05
2023-05-04T14:03:14.458Z,19.91
2023-05-04T14:05:41.834Z,19.71
2023-05-04T14:08:08.901Z,19.58
2023-05-04T14:10:37.419Z,19.53
2023-05-04T14:13:04.529Z,19.49
2023-05-04T14:15:32.169Z,19.50
2023-05-04T14:17:59.301Z,19.50
2023-05-04T14:20:26.505Z,19.42
2023-05-04T14:22:53.378Z,19.35
2023-05-04T14:25:21.682Z,19.29
2023-05-04T14:27:48.954Z,19.20
2023-05-04T14:30:16.151Z,19.16
2023-05-04T14:32:43.138Z,19.10
2023-05-04T14:35:11.178Z,18.97
2023-05-04T14:37:39.156Z,18.86
2023-05-04T14:40:08.003Z,18.78
2023-05-04T14:42:35.606Z,18.71
2023-05-04T14:45:02.672Z,18.72
2023-05-04T14:47:29.838Z,18.74
2023-05-04T14:49:57.653Z,18.72
2023-05-04T14:52:25.885Z,18.70
2023-05-04T14:54:52.832Z,18.69
2023-05-04T14:57:19.788Z,18.67
2023-05-04T14:59:46.959Z,18.64
2023-05-04T15:02:13.894Z,18.53
2023-05-04T15:04:40.755Z,18.38
2023-05-04T15:07:08.641Z,18.31
2023-05-04T15:09:35.866Z,18.25
2023-05-04T15:12:03.783Z,18.16
2023-05-04T15:14:31.001Z,18.04
2023-05-04T15:16:57.949Z,18.01
2023-05-04T15:19:24.861Z,17.99
2023-05-04T15:21:52.164Z,17.95
2023-05-04T15:24:19.007Z,17.93
2023-05-04T15:26:45.817Z,17.92
2023-05-04T15:29:12.631Z,17.86
2023-05-04T15:31:39.880Z,17.79
2023-05-04T15:34:07.138Z,17.74
2023-05-04T15:36:34.076Z,17.67
2023-05-04T15:39:01.024Z,17.66
2023-05-04T15:41:27.969Z,17.63
2023-05-04T15:43:54.849Z,17.61
2023-05-04T15:46:21.678Z,17.59
2023-05-04T15:48:48.567Z,17.54
2023-05-04T15:51:15.488Z,17.46
2023-05-04T15:53:42.386Z,17.38
2023-05-04T15:56:09.253Z,17.28
2023-05-04T15:58:36.177Z,17.20
2023-05-04T16:01:04.191Z,17.13
2023-05-04T16:03:31.764Z,17.08
2023-05-04T16:05:59.063Z,17.03
2023-05-04T16:08:26.277Z,16.99
2023-05-04T16:10:53.743Z,16.92
2023-05-04T16:13:21.153Z,16.87
2023-05-04T16:15:51.780Z,16.86
2023-05-04T16:18:18.793Z,16.84
2023-05-04T16:20:46.687Z,16.83
2023-05-04T16:23:15.198Z,16.81
2023-05-04T16:25:42.238Z,16.79
2023-05-04T16:28:09.271Z,16.75
2023-05-04T16:30:36.327Z,16.70
2023-05-04T16:33:03.634Z,16.63
2023-05-04T16:35:31.503Z,16.54
2023-05-04T16:37:58.800Z,16.46
2023-05-04T16:40:25.960Z,16.42
2023-05-04T16:42:52.870Z,16.39
2023-05-04T16:45:20.381Z,16.36
2023-05-04T16:47:47.344Z,16.32
2023-05-04T16:50:14.535Z,16.29
2023-05-04T16:52:41.675Z,16.19
2023-05-04T16:55:11.901Z,16.15
2023-05-04T16:57:39.709Z,16.13
2023-05-04T17:00:07.730Z,16.10
2023-05-04T17:02:35.678Z,16.07
2023-05-04T17:05:06.755Z,16.00
2023-05-04T17:07:34.275Z,15.88
2023-05-04T17:10:01.591Z,15.79
2023-05-04T17:12:29.140Z,15.69
2023-05-04T17:14:56.138Z,15.63
2023-05-04T17:17:23.118Z,15.58
2023-05-04T17:19:50.019Z,15.53
2023-05-04T17:22:17.646Z,15.49
2023-05-04T17:24:45.719Z,15.43
2023-05-04T17:27:13.161Z,15.41
2023-05-04T17:29:41.271Z,15.39
2023-05-04T17:32:08.429Z,15.39
2023-05-04T17:34:35.979Z,15.39
2023-05-04T17:37:03.453Z,15.40
2023-05-04T17:39:31.845Z,15.39
2023-05-04T17:41:58.933Z,15.36
2023-05-04T17:44:26.345Z,15.33
2023-05-04T17:46:53.206Z,15.24
2023-05-04T17:49:21.184Z,15.16
2023-05-04T17:51:49.511Z,15.14
2023-05-04T17:54:16.828Z,15.09
2023-05-04T17:56:43.866Z,15.03
2023-05-04T17:59:10.817Z,15.02
2023-05-04T18:01:37.822Z,15.03
2023-05-04T18:04:05.234Z,15.05
2023-05-04T18:06:32.844Z,15.03
2023-05-04T18:09:00.564Z,15.01
2023-05-04T18:11:27.385Z,15.01
2023-05-04T18:13:56.325Z,15.04
2023-05-04T18:16:24.390Z,15.05
2023-05-04T18:18:51.507Z,15.04
2023-05-04T18:21:18.507Z,14.98
2023-05-04T18:23:45.788Z,14.93
2023-05-04T18:26:22.959Z,14.94
2023-05-04T18:28:50.023Z,14.94
2023-05-04T18:31:17.570Z,14.95
2023-05-04T18:33:44.937Z,14.91
2023-05-04T18:36:12.375Z,14.89
2023-05-04T18:38:39.324Z,14.88
2023-05-04T18:41:06.322Z,14.86
2023-05-04T18:43:33.232Z,14.87
2023-05-04T18:46:07.102Z,14.88
2023-05-04T18:48:33.993Z,14.87
2023-05-04T18:51:01.249Z,14.81
2023-05-04T18:53:28.245Z,14.79
2023-05-04T18:56:05.619Z,14.75
2023-05-04T18:58:32.699Z,14.68
2023-05-04T19:00:59.766Z,14.57
2023-05-04T19:03:26.903Z,14.51
2023-05-04T19:05:54.008Z,14.46
2023-05-04T19:08:20.960Z,14.43
2023-05-04T19:10:48.675Z,14.40
2023-05-04T19:13:16.221Z,14.37
2023-05-04T19:15:43.403Z,14.33
2023-05-04T19:18:10.561Z,14.31
2023-05-04T19:20:37.970Z,14.28
2023-05-04T19:23:04.869Z,14.27
2023-05-04T19:25:35.201Z,14.26
2023-05-04T19:28:08.999Z,14.26
2023-05-04T19:30:37.240Z,14.23
2023-05-04T19:33:05.074Z,14.22
2023-05-04T19:35:32.394Z,14.21
2023-05-04T19:38:01.543Z,14.19
2023-05-04T19:40:28.626Z,14.15
2023-05-04T19:42:55.504Z,14.08
2023-05-04T19:45:22.438Z,14.03
2023-05-04T19:47:50.621Z,14.01
2023-05-04T19:50:18.142Z,13.98
2023-05-04T19:52:45.124Z,13.95
2023-05-04T19:55:11.995Z,13.92
2023-05-04T19:57:38.917Z,13.85
2023-05-04T20:00:06.944Z,13.81
2023-05-04T20:02:39.832Z,13.79
2023-05-04T20:05:07.269Z,13.78
2023-05-04T20:07:34.145Z,13.79
2023-05-04T20:10:01.013Z,13.78
2023-05-04T20:12:27.876Z,13.76
2023-05-04T20:14:54.769Z,13.74
2023-05-04T20:17:21.846Z,13.71
2023-05-04T20:19:49.276Z,13.67
2023-05-04T20:22:16.519Z,13.65
2023-05-04T20:24:43.566Z,13.62
2023-05-04T20:27:10.483Z,13.61
2023-05-04T20:29:37.383Z,13.61
2023-05-04T20:32:05.210Z,13.62
2023-05-04T20:34:32.310Z,13.61
2023-05-04T20:36:59.241Z,13.60
2023-05-04T20:39:26.294Z,13.57
2023-05-04T20:41:53.188Z,13.56
2023-05-04T20:44:20.092Z,13.55
2023-05-04T20:46:46.973Z,13.54
2023-05-04T20:49:13.891Z,13.53
2023-05-04T20:51:40.957Z,13.50
2023-05-04T20:54:08.001Z,13.45
2023-05-04T20:56:34.893Z,13.44
2023-05-04T20:59:01.753Z,13.42
2023-05-04T21:01:29.779Z,13.41
2023-05-04T21:03:56.942Z,13.42
2023-05-04T21:06:24.802Z,13.44
2023-05-04T21:08:51.775Z,13.45
2023-05-04T21:11:18.613Z,13.45
2023-05-04T21:13:45.449Z,13.44
2023-05-04T21:16:12.351Z,13.42
2023-05-04T21:18:39.463Z,13.39
2023-05-04T21:21:06.364Z,13.39
2023-05-04T21:23:33.257Z,13.40
2023-05-04T21:26:03.888Z,13.41
2023-05-04T21:28:30.976Z,13.39
2023-05-04T21:30:58.035Z,13.38
2023-05-04T21:33:25.070Z,13.38
2023-05-04T21:35:52.010Z,13.39
2023-05-04T21:38:21.689Z,13.42
2023-05-04T21:40:48.977Z,13.43
2023-05-04T21:43:15.932Z,13.42
2023-05-04T21:45:42.898Z,13.42
2023-05-04T21:48:09.803Z,13.41
2023-05-04T21:50:37.014Z,13.40
2023-05-04T21:53:04.054Z,13.37
2023-05-04T21:55:30.919Z,13.31
2023-05-04T21:57:57.848Z,13.28
2023-05-04T22:00:25.006Z,13.26
2023-05-04T22:02:54.136Z,13.25
2023-05-04T22:05:22.776Z,13.24
2023-05-04T22:07:50.294Z,13.21
2023-05-04T22:10:18.022Z,13.20
2023-05-04T22:12:44.937Z,13.19
2023-05-04T22:15:11.872Z,13.20
2023-05-04T22:17:39.049Z,13.19
2023-05-04T22:20:07.087Z,13.20
2023-05-04T22:22:34.838Z,13.19
2023-05-04T22:25:01.791Z,13.20
2023-05-04T22:27:28.636Z,13.19
2023-05-04T22:29:55.780Z,13.19
2023-05-04T22:32:22.748Z,13.19
2023-05-04T22:34:49.602Z,13.18
2023-05-04T22:37:16.533Z,13.19
2023-05-04T22:39:43.382Z,13.20
2023-05-04T22:42:10.383Z,13.22
2023-05-04T22:44:37.203Z,13.25
2023-05-04T22:47:04.480Z,13.26
2023-05-04T22:49:31.308Z,13.25
2023-05-04T22:51:58.354Z,13.24
2023-05-04T22:54:25.810Z,13.21
2023-05-04T22:56:52.760Z,13.20
2023-05-04T22:59:19.613Z,13.18
2023-05-04T23:01:46.773Z,13.15
2023-05-04T23:04:13.831Z,13.09
2023-05-04T23:06:40.767Z,13.04
2023-05-04T23:09:07.923Z,13.01
2023-05-04T23:11:34.982Z,12.98
2023-05-04T23:14:01.875Z,12.95
2023-05-04T23:16:28.831Z,12.90
2023-05-04T23:18:55.932Z,12.89
2023-05-04T23:21:23.013Z,12.89
2023-05-04T23:23:53.095Z,12.88
2023-05-04T23:26:20.061Z,12.88
2023-05-04T23:28:47.017Z,12.88
2023-05-04T23:31:13.998Z,12.86
2023-05-04T23:33:41.834Z,12.85
2023-05-04T23:36:08.708Z,12.85
2023-05-04T23:38:35.548Z,12.85
2023-05-04T23:41:05.874Z,12.85
2023-05-04T23:43:32.827Z,12.83
2023-05-04T23:46:03.773Z,12.83
2023-05-04T23:48:31.933Z,12.80
2023-05-04T23:51:03.711Z,12.76
2023-05-04T23:53:32.084Z,12.74
2023-05-04T23:56:06.692Z,12.73
2023-05-04T23:58:34.418Z,12.73
